Time;durP1;ratioP1;P1;durP2;ratioP2;P2;SDS_P1;SDS_P2;PMS_P1;PMS_P2;Temp;Humidity;BMP_temperature;BMP_pressure;BME280_temperature;BME280_humidity;BME280_pressure;Samples;Min_cycle;Max_cycle;Signal;HPM_P1;HPM_P2
2021/12/04 00:01:46;;;;;;;6.65;5.20;;;;;;;;;;5040241;28;20076;-69
2021/12/04 00:04:13;;;;;;;8.18;5.78;;;;;;;;;;5033438;28;20056;-69
2021/12/04 00:06:41;;;;;;;6.05;5.20;;;;;;;;;;5033068;28;20047;-69
2021/12/04 00:09:09;;;;;;;6.63;5.15;;;;;;;;;;5038902;28;20044;-69
2021/12/04 00:11:38;;;;;;;8.02;6.03;;;;;;;;;;5032411;28;20429;-69
2021/12/04 00:14:04;;;;;;;;;;;;;;;;;;5040538;28;20061;-70
2021/12/04 00:16:30;;;;;;;6.03;5.43;;;;;;;;;;5033097;28;19932;-69
2021/12/04 00:18:57;;;;;;;8.85;5.82;;;;;;;;;;5035468;28;20498;-69
2021/12/04 00:21:23;;;;;;;7.97;6.50;;;;;;;;;;5031866;28;20662;-69
2021/12/04 00:23:49;;;;;;;9.52;5.95;;;;;;;;;;5037402;28;20422;-69
2021/12/04 00:26:16;;;;;;;9.07;7.05;;;;;;;;;;5040131;28;20139;-69
2021/12/04 00:28:42;;;;;;;8.82;6.72;;;;;;;;;;5032010;28;20044;-70
2021/12/04 00:31:09;;;;;;;8.77;6.28;;;;;;;;;;5037726;28;20052;-69
2021/12/04 00:33:37;;;;;;;8.73;6.43;;;;;;;;;;5028565;28;20413;-69
2021/12/04 00:36:11;;;;;;;;;;;;;;;;;;5039987;28;20060;-68
2021/12/04 00:49:54;;;;;;;10.57;6.53;;;;;;;;;;5030158;28;20049;-68
2021/12/04 00:52:20;;;;;;;10.38;6.07;;;;;;;;;;5039645;28;20052;-68
2021/12/04 00:54:47;;;;;;;7.90;5.72;;;;;;;;;;5039038;28;20537;-69
2021/12/04 00:57:13;;;;;;;6.78;5.63;;;;;;;;;;5031764;28;20049;-69
2021/12/04 00:59:40;;;;;;;7.97;6.38;;;;;;;;;;5033404;28;20052;-69
2021/12/04 01:02:06;;;;;;;8.90;5.78;;;;;;;;;;5026858;28;20080;-69
2021/12/04 01:04:32;;;;;;;8.30;6.25;;;;;;;;;;5038716;28;20037;-68
2021/12/04 01:06:59;;;;;;;7.43;5.68;;;;;;;;;;5035374;28;20055;-69
2021/12/04 01:09:25;;;;;;;8.05;6.28;;;;;;;;;;5036960;28;20053;-69
2021/12/04 01:11:53;;;;;;;6.88;5.55;;;;;;;;;;5039176;28;20546;-68
2021/12/04 01:14:22;;;;;;;7.85;5.82;;;;;;;;;;5026403;28;20049;-68
2021/12/04 01:16:49;;;;;;;8.02;5.90;;;;;;;;;;5033969;28;20055;-69
2021/12/04 01:19:18;;;;;;;9.07;6.57;;;;;;;;;;5031448;28;20045;-68
2021/12/04 01:21:44;;;;;;;;;;;;;;;;;;5039760;28;20300;-68
2021/12/04 01:24:10;;;;;;;8.75;6.35;;;;;;;;;;5032172;28;19932;-68
2021/12/04 01:26:37;;;;;;;7.70;6.22;;;;;;;;;;5036801;28;20052;-68
2021/12/04 01:29:04;;;;;;;10.27;7.25;;;;;;;;;;5032182;28;20059;-68
2021/12/04 01:31:30;;;;;;;9.43;6.55;;;;;;;;;;5028578;28;20049;-68
2021/12/04 01:33:56;;;;;;;10.80;6.40;;;;;;;;;;5038516;28;20357;-68
2021/12/04 01:36:24;;;;;;;8.98;6.60;;;;;;;;;;5030591;28;20057;-69
2021/12/04 01:38:50;;;;;;;9.98;6.82;;;;;;;;;;5034581;28;20059;-68
2021/12/04 01:41:17;;;;;;;8.85;6.28;;;;;;;;;;5031007;28;20057;-68
2021/12/04 01:43:43;;;;;;;8.57;6.18;;;;;;;;;;5029155;28;20049;-68
2021/12/04 01:46:10;;;;;;;7.63;6.32;;;;;;;;;;5038290;28;20060;-69
2021/12/04 01:48:36;;;;;;;7.40;6.40;;;;;;;;;;5030257;28;20430;-68
2021/12/04 01:51:02;;;;;;;8.27;5.82;;;;;;;;;;5037880;28;20053;-68
2021/12/04 01:53:29;;;;;;;7.90;6.07;;;;;;;;;;5030452;28;20049;-68
2021/12/04 01:55:56;;;;;;;7.50;5.90;;;;;;;;;;5033751;28;20238;-70
2021/12/04 01:58:23;;;;;;;9.75;6.22;;;;;;;;;;5033240;28;20057;-69
2021/12/04 02:00:51;;;;;;;7.83;5.87;;;;;;;;;;5030591;28;20049;-68
2021/12/04 02:03:18;;;;;;;7.97;5.70;;;;;;;;;;5038425;28;20045;-68
2021/12/04 02:05:46;;;;;;;9.00;6.72;;;;;;;;;;5027810;28;21054;-68
2021/12/04 02:08:13;;;;;;;8.30;6.15;;;;;;;;;;5036735;28;20056;-68
2021/12/04 02:10:40;;;;;;;8.40;6.75;;;;;;;;;;5022890;28;20049;-68
2021/12/04 02:13:07;;;;;;;8.73;6.32;;;;;;;;;;5037254;28;20424;-68
2021/12/04 02:15:33;;;;;;;8.85;6.57;;;;;;;;;;5037372;28;20049;-69
2021/12/04 02:18:02;;;;;;;8.70;6.75;;;;;;;;;;5028621;28;20103;-68
2021/12/04 02:20:28;;;;;;;;;;;;;;;;;;5036765;28;20047;-69
2021/12/04 02:22:55;;;;;;;8.38;6.88;;;;;;;;;;5025258;28;19925;-69
2021/12/04 02:25:22;;;;;;;7.70;6.13;;;;;;;;;;5032629;28;20048;-69
2021/12/04 02:27:48;;;;;;;7.22;5.60;;;;;;;;;;5029851;28;20048;-68
2021/12/04 02:30:18;;;;;;;9.95;6.10;;;;;;;;;;5037385;28;20223;-68
2021/12/04 02:32:44;;;;;;;6.68;5.53;;;;;;;;;;5029547;28;20146;-68
2021/12/04 02:35:11;;;;;;;7.32;5.93;;;;;;;;;;5036858;28;20053;-68
2021/12/04 02:37:39;;;;;;;8.15;5.97;;;;;;;;;;5030230;28;20045;-68
2021/12/04 02:40:07;;;;;;;7.60;5.90;;;;;;;;;;5024400;28;20631;-69
2021/12/04 02:42:33;;;;;;;5.93;4.70;;;;;;;;;;5037138;28;20045;-68
2021/12/04 02:45:01;;;;;;;7.85;5.30;;;;;;;;;;5029706;28;20053;-68
2021/12/04 02:47:28;;;;;;;6.88;5.50;;;;;;;;;;5038327;28;20053;-68
2021/12/04 02:49:55;;;;;;;6.45;4.93;;;;;;;;;;5027728;28;20049;-69
2021/12/04 02:52:22;;;;;;;7.68;5.07;;;;;;;;;;5035659;28;20948;-69
2021/12/04 02:54:49;;;;;;;7.75;5.53;;;;;;;;;;5036478;28;20048;-69
2021/12/04 02:57:17;;;;;;;8.02;5.10;;;;;;;;;;5029167;28;20049;-69
2021/12/04 02:59:44;;;;;;;6.77;5.43;;;;;;;;;;5036952;28;21235;-68
2021/12/04 03:02:19;;;;;;;8.00;5.25;;;;;;;;;;5018975;28;20619;-69
2021/12/04 03:04:47;;;;;;;7.30;5.10;;;;;;;;;;5034529;28;20044;-68
2021/12/04 03:07:14;;;;;;;7.72;4.75;;;;;;;;;;5029309;28;20483;-69
2021/12/04 03:09:40;;;;;;;5.88;4.20;;;;;;;;;;5036229;28;20049;-70
2021/12/04 03:12:07;;;;;;;6.82;4.72;;;;;;;;;;5036542;28;20048;-69
2021/12/04 03:14:34;;;;;;;6.38;4.50;;;;;;;;;;5025846;28;20448;-69
2021/12/04 03:17:01;;;;;;;5.00;4.15;;;;;;;;;;5037408;28;20079;-69
2021/12/04 03:19:27;;;;;;;6.50;3.75;;;;;;;;;;5027130;28;20056;-71
2021/12/04 03:21:55;;;;;;;4.97;4.00;;;;;;;;;;5036061;28;20069;-68
2021/12/04 03:24:23;;;;;;;6.25;4.30;;;;;;;;;;5024637;28;20049;-70
2021/12/04 03:26:53;;;;;;;5.57;4.20;;;;;;;;;;5030842;28;20045;-68
2021/12/04 03:29:22;;;;;;;7.25;4.80;;;;;;;;;;5035203;28;20049;-68
2021/12/04 03:42:30;;;;;;;6.13;4.72;;;;;;;;;;5024353;28;20511;-68
2021/12/04 03:44:56;;;;;;;7.00;4.55;;;;;;;;;;5036734;28;20045;-68
2021/12/04 03:47:22;;;;;;;7.65;4.85;;;;;;;;;;5030067;28;20053;-69
2021/12/04 03:49:49;;;;;;;8.07;5.10;;;;;;;;;;5036080;28;20060;-67
2021/12/04 03:52:16;;;;;;;6.43;5.13;;;;;;;;;;5033598;28;20513;-69
2021/12/04 03:54:42;;;;;;;7.22;4.60;;;;;;;;;;5022350;28;20045;-69
2021/12/04 03:57:12;;;;;;;9.73;5.25;;;;;;;;;;5035755;28;20060;-71
2021/12/04 03:59:40;;;;;;;11.75;5.57;;;;;;;;;;5028738;28;20521;-68
2021/12/04 04:02:11;;;;;;;6.93;5.18;;;;;;;;;;5037284;28;20458;-69
2021/12/04 04:04:37;;;;;;;6.85;5.10;;;;;;;;;;5028755;28;20448;-68
2021/12/04 04:07:04;;;;;;;7.47;5.05;;;;;;;;;;5031675;28;20068;-68
2021/12/04 04:09:31;;;;;;;10.38;5.40;;;;;;;;;;5026556;28;20054;-69
2021/12/04 04:11:58;;;;;;;7.03;5.30;;;;;;;;;;5035436;28;20045;-68
2021/12/04 04:14:25;;;;;;;6.90;5.32;;;;;;;;;;5038665;28;20049;-68
2021/12/04 04:16:53;;;;;;;7.75;5.50;;;;;;;;;;5030044;28;20132;-68
2021/12/04 04:19:20;;;;;;;9.80;5.53;;;;;;;;;;5036540;28;20055;-68
2021/12/04 04:21:46;;;;;;;8.27;5.05;;;;;;;;;;5023631;28;20052;-68
2021/12/04 04:24:13;;;;;;;8.30;5.85;;;;;;;;;;5029881;28;20060;-68
2021/12/04 04:26:40;;;;;;;9.02;6.00;;;;;;;;;;5029186;28;20465;-69
2021/12/04 04:29:07;;;;;;;8.95;5.93;;;;;;;;;;5035950;28;20037;-68
2021/12/04 04:31:35;;;;;;;11.80;6.50;;;;;;;;;;5035536;28;20052;-68
2021/12/04 04:34:04;;;;;;;10.25;7.03;;;;;;;;;;5027980;28;20063;-68
2021/12/04 05:10:16;;;;;;;18.27;8.55;;;;;;;;;;5025994;28;20060;-67
2021/12/04 05:11:42;;;;;;;17.25;8.50;;;;;;;;;;5038708;28;20057;-68
2021/12/04 05:14:15;;;;;;;15.93;8.43;;;;;;;;;;5031184;28;20053;-68
2021/12/04 05:16:46;;;;;;;16.80;8.60;;;;;;;;;;5034812;28;20666;-68
2021/12/04 05:19:25;;;;;;;14.48;7.70;;;;;;;;;;5026213;28;20049;-68
2021/12/04 05:21:52;;;;;;;18.20;8.30;;;;;;;;;;5037357;28;20141;-68
2021/12/04 05:24:19;;;;;;;15.35;8.25;;;;;;;;;;5029860;28;20052;-67
2021/12/04 05:26:45;;;;;;;16.70;8.23;;;;;;;;;;5038692;28;20048;-69
2021/12/04 05:29:11;;;;;;;13.07;8.18;;;;;;;;;;5034012;28;20052;-68
2021/12/04 05:31:37;;;;;;;14.40;7.55;;;;;;;;;;5029746;28;20048;-67
2021/12/04 05:34:04;;;;;;;17.42;7.55;;;;;;;;;;5033575;28;20061;-68
2021/12/04 05:36:30;;;;;;;17.92;7.57;;;;;;;;;;5030973;28;20053;-69
2021/12/04 05:38:58;;;;;;;15.05;7.70;;;;;;;;;;5036774;28;20048;-68
2021/12/04 05:41:25;;;;;;;14.65;7.47;;;;;;;;;;5030586;28;20048;-68
2021/12/04 05:43:51;;;;;;;15.77;7.78;;;;;;;;;;5038471;28;20053;-68
2021/12/04 05:46:21;;;;;;;17.75;8.40;;;;;;;;;;5024926;28;20511;-68
2021/12/04 05:56:17;;;;;;;14.02;7.80;;;;;;;;;;5039245;28;20045;-68
2021/12/04 05:58:43;;;;;;;15.25;8.27;;;;;;;;;;5028719;28;20408;-68
2021/12/04 06:01:10;;;;;;;16.10;8.25;;;;;;;;;;5034359;28;20048;-68
2021/12/04 06:03:37;;;;;;;15.75;7.85;;;;;;;;;;5029328;28;20551;-68
2021/12/04 06:06:03;;;;;;;22.38;8.40;;;;;;;;;;5036577;28;20045;-68
2021/12/04 06:08:30;;;;;;;14.13;8.15;;;;;;;;;;5038639;28;20045;-69
2021/12/04 06:10:56;;;;;;;13.38;7.82;;;;;;;;;;5029565;28;20065;-68
2021/12/04 06:13:23;;;;;;;12.70;7.10;;;;;;;;;;5032027;28;20049;-68
2021/12/04 06:15:50;;;;;;;16.58;7.63;;;;;;;;;;5026313;28;20045;-68
2021/12/04 06:18:17;;;;;;;16.75;8.70;;;;;;;;;;5037022;28;20415;-68
2021/12/04 06:23:29;;;;;;;15.20;8.15;;;;;;;;;;5037441;28;20806;-67
2021/12/04 06:25:56;;;;;;;13.57;7.88;;;;;;;;;;5033509;28;20041;-68
2021/12/04 06:28:22;;;;;;;17.13;8.23;;;;;;;;;;5024255;28;20059;-69
2021/12/04 06:30:50;;;;;;;16.63;8.32;;;;;;;;;;5036724;28;20619;-67
2021/12/04 06:33:17;;;;;;;12.73;7.47;;;;;;;;;;5029368;28;20089;-68
2021/12/04 06:35:46;;;;;;;16.45;8.50;;;;;;;;;;5036893;28;20171;-68
2021/12/04 06:38:13;;;;;;;15.77;8.70;;;;;;;;;;5028309;28;20057;-68
2021/12/04 06:40:40;;;;;;;13.75;7.13;;;;;;;;;;5030487;28;20049;-67
2021/12/04 06:43:07;;;;;;;10.60;7.38;;;;;;;;;;5032262;28;20051;-68
2021/12/04 06:45:36;;;;;;;13.70;8.48;;;;;;;;;;5028737;28;20053;-70
2021/12/04 06:48:07;;;;;;;17.77;7.55;;;;;;;;;;5036200;28;20446;-69
2021/12/04 06:50:44;;;;;;;12.68;7.13;;;;;;;;;;5027932;28;20049;-70
2021/12/04 06:53:27;;;;;;;11.77;7.00;;;;;;;;;;5036054;28;20041;-67
2021/12/04 06:55:55;;;;;;;14.35;7.20;;;;;;;;;;5022698;28;20494;-67
2021/12/04 06:58:22;;;;;;;11.02;7.25;;;;;;;;;;5035616;28;20057;-67
2021/12/04 07:00:49;;;;;;;13.75;7.28;;;;;;;;;;5027340;28;20371;-69
2021/12/04 07:03:17;;;;;;;12.55;7.18;;;;;;;;;;5036813;28;20157;-67
2021/12/04 07:05:43;;;;;;;14.07;7.30;;;;;;;;;;5035547;28;20102;-68
2021/12/04 07:08:10;;;;;;;16.27;7.25;;;;;;;;;;5022327;28;20049;-68
2021/12/04 07:10:37;;;;;;;15.75;8.88;;;;;;;;;;5030531;28;20049;-68
2021/12/04 07:13:03;;;;;;;14.43;7.72;;;;;;;;;;5028662;28;20053;-68
2021/12/04 07:15:31;;;;;;;18.00;8.35;;;;;;;;;;5037019;28;20053;-67
2021/12/04 07:17:58;;;;;;;13.52;8.38;;;;;;;;;;5031471;28;20126;-68
2021/12/04 07:20:24;;;;;;;14.38;8.98;;;;;;;;;;5036030;28;20053;-68
2021/12/04 07:22:51;;;;;;;13.77;8.63;;;;;;;;;;5031049;28;20053;-68
2021/12/04 07:25:18;;;;;;;19.45;9.30;;;;;;;;;;5023678;28;20045;-68
2021/12/04 07:27:45;;;;;;;16.65;9.13;;;;;;;;;;5035331;28;20053;-68
2021/12/04 07:30:12;;;;;;;16.97;9.23;;;;;;;;;;5027304;28;20080;-68
2021/12/04 07:32:39;;;;;;;17.58;9.23;;;;;;;;;;5036174;28;20048;-67
2021/12/04 07:35:07;;;;;;;16.35;8.75;;;;;;;;;;5028250;28;20048;-68
2021/12/04 07:37:33;;;;;;;16.92;9.27;;;;;;;;;;5029297;28;20505;-68
2021/12/04 07:40:00;;;;;;;15.18;8.85;;;;;;;;;;5028630;28;20049;-68
2021/12/04 07:42:26;;;;;;;14.35;8.52;;;;;;;;;;5032548;28;20100;-68
2021/12/04 07:44:52;;;;;;;15.88;8.57;;;;;;;;;;5033758;28;20060;-67
2021/12/04 07:47:19;;;;;;;16.52;8.52;;;;;;;;;;5028274;28;20045;-68
2021/12/04 07:49:45;;;;;;;14.43;8.32;;;;;;;;;;5031978;28;20055;-68
2021/12/04 07:52:12;;;;;;;15.50;8.43;;;;;;;;;;5022841;28;20049;-68
2021/12/04 07:54:38;;;;;;;14.80;8.45;;;;;;;;;;5035550;28;20056;-67
2021/12/04 07:57:04;;;;;;;13.90;8.43;;;;;;;;;;5036649;28;20057;-68
2021/12/04 07:59:31;;;;;;;16.63;8.80;;;;;;;;;;5028969;28;20508;-68
2021/12/04 08:01:57;;;;;;;13.23;7.72;;;;;;;;;;5036919;28;20053;-68
2021/12/04 08:04:25;;;;;;;15.75;7.72;;;;;;;;;;5028033;28;20057;-68
2021/12/04 08:06:52;;;;;;;12.32;7.60;;;;;;;;;;5033066;28;20063;-68
2021/12/04 08:09:18;;;;;;;17.20;8.13;;;;;;;;;;5032653;28;20052;-69
2021/12/04 08:11:46;;;;;;;16.20;7.88;;;;;;;;;;5039574;28;20059;-68
2021/12/04 08:14:12;;;;;;;16.60;8.00;;;;;;;;;;5040417;28;20052;-70
2021/12/04 08:16:38;;;;;;;14.38;8.23;;;;;;;;;;5031994;28;20060;-68
2021/12/04 08:19:05;;;;;;;17.10;7.82;;;;;;;;;;5035181;28;20057;-68
2021/12/04 08:21:31;;;;;;;16.52;8.32;;;;;;;;;;5028935;28;20070;-68
2021/12/04 08:23:58;;;;;;;13.68;6.57;;;;;;;;;;5041095;28;20521;-68
2021/12/04 08:26:24;;;;;;;13.82;8.13;;;;;;;;;;5035306;28;20057;-69
2021/12/04 08:28:51;;;;;;;16.50;9.13;;;;;;;;;;5042267;28;20045;-68
2021/12/04 08:31:18;;;;;;;13.43;6.82;;;;;;;;;;5038208;28;20045;-68
2021/12/04 08:33:44;;;;;;;19.27;8.48;;;;;;;;;;5031827;28;20044;-68
2021/12/04 08:36:11;;;;;;;15.88;7.28;;;;;;;;;;5040576;28;20678;-68
2021/12/04 08:38:37;;;;;;;14.45;7.63;;;;;;;;;;5033775;28;20041;-68
2021/12/04 08:41:05;;;;;;;16.77;7.53;;;;;;;;;;5039993;28;20159;-68
2021/12/04 08:43:31;;;;;;;16.40;7.30;;;;;;;;;;5035160;28;20049;-68
2021/12/04 08:46:01;;;;;;;16.13;8.65;;;;;;;;;;5037377;28;20243;-68
2021/12/04 08:48:29;;;;;;;16.67;9.02;;;;;;;;;;5030543;28;20052;-68
2021/12/04 08:50:57;;;;;;;19.20;8.90;;;;;;;;;;5039668;28;20048;-68
2021/12/04 08:53:24;;;;;;;16.83;8.83;;;;;;;;;;5041354;28;20059;-68
2021/12/04 08:55:50;;;;;;;17.63;9.00;;;;;;;;;;5032929;28;20053;-68
2021/12/04 08:58:16;;;;;;;15.65;8.35;;;;;;;;;;5039887;28;20071;-68
2021/12/04 09:00:51;;;;;;;18.33;9.20;;;;;;;;;;5025891;28;20064;-68
2021/12/04 09:03:21;;;;;;;15.73;8.20;;;;;;;;;;5034793;28;20060;-68
2021/12/04 09:05:50;;;;;;;16.10;8.77;;;;;;;;;;5031567;28;20049;-68
2021/12/04 09:08:17;;;;;;;13.43;8.43;;;;;;;;;;5039732;28;20341;-68
2021/12/04 09:10:46;;;;;;;12.25;7.45;;;;;;;;;;5039178;28;20053;-68
2021/12/04 09:13:13;;;;;;;14.00;7.68;;;;;;;;;;5030669;28;20430;-68
2021/12/04 09:15:40;;;;;;;14.38;8.38;;;;;;;;;;5034661;28;20049;-68
2021/12/04 09:18:06;;;;;;;12.43;7.65;;;;;;;;;;5033664;28;20056;-68
2021/12/04 09:20:33;;;;;;;13.32;7.50;;;;;;;;;;5040504;28;20060;-69
2021/12/04 09:23:00;;;;;;;12.82;8.38;;;;;;;;;;5035353;28;20657;-68
2021/12/04 09:25:29;;;;;;;14.32;8.15;;;;;;;;;;5041152;28;20049;-69
2021/12/04 09:28:41;;;;;;;17.08;8.98;;;;;;;;;;5036036;28;20052;-68
2021/12/04 10:00:46;;;;;;;21.17;10.52;;;;;;;;;;5039489;28;20060;-68
2021/12/04 10:03:42;;;;;;;16.55;9.95;;;;;;;;;;5032116;28;20059;-69
2021/12/04 10:11:05;;;;;;;17.83;11.05;;;;;;;;;;5038041;28;20837;-68
2021/12/04 10:20:11;;;;;;;19.80;10.52;;;;;;;;;;5030330;28;20057;-70
2021/12/04 10:22:59;;;;;;;24.98;10.70;;;;;;;;;;5038652;28;20381;-68
2021/12/04 10:33:37;;;;;;;18.95;8.95;;;;;;;;;;5038329;28;20055;-69
2021/12/04 10:36:03;;;;;;;18.92;9.07;;;;;;;;;;5033535;28;20053;-69
2021/12/04 10:38:38;;;;;;;19.73;9.30;;;;;;;;;;5024504;28;20080;-68
2021/12/04 10:41:05;;;;;;;23.35;10.38;;;;;;;;;;5037148;28;20072;-69
2021/12/04 10:43:31;;;;;;;18.13;8.48;;;;;;;;;;5032683;28;20323;-68
2021/12/04 10:45:59;;;;;;;20.42;10.25;;;;;;;;;;5037776;28;20059;-69
2021/12/04 10:48:29;;;;;;;20.63;8.82;;;;;;;;;;5031071;28;20061;-69
2021/12/04 10:53:37;;;;;;;18.30;9.27;;;;;;;;;;5028387;28;20127;-68
2021/12/04 11:01:13;;;;;;;20.13;10.10;;;;;;;;;;5029589;28;20056;-68
2021/12/04 11:20:57;;;;;;;17.55;9.80;;;;;;;;;;5033335;28;20569;-69
2021/12/04 11:28:47;;;;;;;17.48;9.57;;;;;;;;;;5030792;28;20052;-69
2021/12/04 11:42:23;;;;;;;15.38;8.93;;;;;;;;;;5037255;28;20075;-69
2021/12/04 11:44:54;;;;;;;15.18;8.88;;;;;;;;;;5031818;28;20060;-69
2021/12/04 11:47:21;;;;;;;13.18;8.68;;;;;;;;;;5041475;28;20053;-68
2021/12/04 11:49:47;;;;;;;15.95;9.13;;;;;;;;;;5039789;28;20056;-68
2021/12/04 11:52:15;;;;;;;13.20;8.23;;;;;;;;;;5032433;28;20041;-69
2021/12/04 11:54:45;;;;;;;13.20;8.80;;;;;;;;;;5039911;28;20057;-68
2021/12/04 11:57:12;;;;;;;11.02;7.60;;;;;;;;;;5033447;28;20048;-68
2021/12/04 11:59:40;;;;;;;12.38;8.65;;;;;;;;;;5041437;28;20049;-68
2021/12/04 12:02:08;;;;;;;13.10;8.57;;;;;;;;;;5033419;28;20052;-69
2021/12/04 12:04:41;;;;;;;13.75;7.68;;;;;;;;;;5040466;28;20068;-69
2021/12/04 12:07:09;;;;;;;11.20;8.25;;;;;;;;;;5026203;28;20056;-69
2021/12/04 12:09:37;;;;;;;12.80;8.00;;;;;;;;;;5038410;28;20386;-68
2021/12/04 12:12:05;;;;;;;10.88;7.75;;;;;;;;;;5039816;28;20052;-69
2021/12/04 12:14:51;;;;;;;12.93;8.48;;;;;;;;;;5031625;28;20057;-69
2021/12/04 12:17:37;;;;;;;10.93;8.10;;;;;;;;;;5040137;28;20482;-68
2021/12/04 12:20:04;;;;;;;11.63;8.35;;;;;;;;;;5026584;28;20049;-68
2021/12/04 12:22:43;;;;;;;11.35;7.72;;;;;;;;;;5033898;28;20048;-68
2021/12/04 12:25:19;;;;;;;10.13;7.35;;;;;;;;;;5033465;28;20048;-69
2021/12/04 12:33:22;;;;;;;14.82;7.55;;;;;;;;;;5036567;28;20422;-69
2021/12/04 12:38:33;;;;;;;11.93;6.43;;;;;;;;;;5039296;28;20095;-68
2021/12/04 12:41:02;;;;;;;11.80;8.00;;;;;;;;;;5035294;28;20052;-69
2021/12/04 12:43:37;;;;;;;9.70;7.13;;;;;;;;;;5036292;28;20045;-69
2021/12/04 12:46:04;;;;;;;10.30;7.40;;;;;;;;;;5038810;28;20041;-69
2021/12/04 12:48:40;;;;;;;10.73;8.18;;;;;;;;;;5025200;28;20400;-69
2021/12/04 12:51:07;;;;;;;10.45;7.43;;;;;;;;;;5038526;28;20045;-69
2021/12/04 12:53:40;;;;;;;12.13;8.68;;;;;;;;;;5033655;28;20045;-70
2021/12/04 12:56:08;;;;;;;13.63;9.70;;;;;;;;;;5038067;28;20041;-69
2021/12/04 12:58:56;;;;;;;12.50;7.65;;;;;;;;;;5030783;28;20045;-70
2021/12/04 13:12:42;;;;;;;12.52;8.27;;;;;;;;;;5038922;28;20150;-71
2021/12/04 13:15:10;;;;;;;11.88;7.28;;;;;;;;;;5034458;28;20041;-71
2021/12/04 13:17:38;;;;;;;10.50;8.10;;;;;;;;;;5026327;28;20067;-74
2021/12/04 13:20:05;;;;;;;11.60;8.93;;;;;;;;;;5035468;28;20496;-69
2021/12/04 13:22:31;;;;;;;13.38;8.98;;;;;;;;;;5028777;28;20056;-71
2021/12/04 13:25:00;;;;;;;11.82;8.35;;;;;;;;;;5037995;28;20059;-68
2021/12/04 13:29:53;;;;;;;11.35;7.45;;;;;;;;;;5031634;28;20457;-68
2021/12/04 13:32:28;;;;;;;9.82;7.20;;;;;;;;;;5033624;28;20846;-71
2021/12/04 13:34:55;;;;;;;8.82;7.13;;;;;;;;;;5037117;28;20056;-68
2021/12/04 13:37:25;;;;;;;8.30;6.38;;;;;;;;;;5036786;28;20048;-69
2021/12/04 13:39:54;;;;;;;7.90;5.97;;;;;;;;;;5027179;28;20044;-70
2021/12/04 13:42:21;;;;;;;10.20;7.32;;;;;;;;;;5037189;28;20060;-69
2021/12/04 13:44:47;;;;;;;9.18;6.80;;;;;;;;;;5025861;28;20053;-69
2021/12/04 13:47:13;;;;;;;9.23;6.95;;;;;;;;;;5034462;28;20540;-69
2021/12/04 13:49:53;;;;;;;11.05;6.88;;;;;;;;;;5028992;28;20261;-69
2021/12/04 13:52:19;;;;;;;10.18;8.80;;;;;;;;;;5035469;28;20466;-69
2021/12/04 13:54:50;;;;;;;10.15;7.75;;;;;;;;;;5036854;28;20044;-69
2021/12/04 13:57:18;;;;;;;10.27;7.95;;;;;;;;;;5021943;28;20437;-70
2021/12/04 13:59:44;;;;;;;9.82;7.47;;;;;;;;;;5031126;28;20045;-69
2021/12/04 14:02:18;;;;;;;10.52;7.57;;;;;;;;;;5027471;28;20256;-69
2021/12/04 14:04:53;;;;;;;12.75;8.38;;;;;;;;;;5035971;28;20053;-69
2021/12/04 14:07:19;;;;;;;11.82;8.32;;;;;;;;;;5031877;28;20060;-69
2021/12/04 14:09:46;;;;;;;13.75;8.95;;;;;;;;;;5036231;28;20044;-69
2021/12/04 14:12:12;;;;;;;14.65;8.90;;;;;;;;;;5022107;28;20049;-69
2021/12/04 14:14:38;;;;;;;12.38;8.15;;;;;;;;;;5035317;28;20056;-69
2021/12/04 14:17:09;;;;;;;13.40;10.35;;;;;;;;;;5037445;28;20068;-69
2021/12/04 14:19:36;;;;;;;15.77;9.82;;;;;;;;;;5029831;28;20120;-69
2021/12/04 14:22:03;;;;;;;13.68;9.82;;;;;;;;;;5036576;28;20498;-69
2021/12/04 14:24:31;;;;;;;16.13;9.30;;;;;;;;;;5025607;28;20087;-69
2021/12/04 14:26:58;;;;;;;13.52;9.55;;;;;;;;;;5031046;28;20045;-69
2021/12/04 14:29:30;;;;;;;19.30;11.02;;;;;;;;;;5028315;28;20060;-69
2021/12/04 14:31:56;;;;;;;13.52;10.20;;;;;;;;;;5036545;28;20067;-69
2021/12/04 14:34:24;;;;;;;14.85;10.70;;;;;;;;;;5036565;28;20049;-69
2021/12/04 14:36:59;;;;;;;13.43;10.30;;;;;;;;;;5030341;28;20055;-69
2021/12/04 14:39:25;;;;;;;16.77;11.15;;;;;;;;;;5030757;28;20056;-69
2021/12/04 14:41:56;;;;;;;15.63;11.18;;;;;;;;;;5023041;28;20429;-69
2021/12/04 14:44:22;;;;;;;16.60;11.43;;;;;;;;;;5036370;28;20076;-69
2021/12/04 14:46:49;;;;;;;17.05;12.30;;;;;;;;;;5028888;28;20053;-69
2021/12/04 14:49:16;;;;;;;18.50;12.65;;;;;;;;;;5037739;28;20103;-69
2021/12/04 14:51:42;;;;;;;17.50;12.52;;;;;;;;;;5038498;28;20646;-70
2021/12/04 14:54:09;;;;;;;13.77;10.65;;;;;;;;;;5027145;28;20053;-70
2021/12/04 14:56:35;;;;;;;16.38;10.95;;;;;;;;;;5036711;28;20132;-70
2021/12/04 14:59:12;;;;;;;14.88;11.00;;;;;;;;;;5030910;28;20045;-70
2021/12/04 15:01:38;;;;;;;13.93;9.95;;;;;;;;;;5038020;28;20045;-70
2021/12/04 15:04:05;;;;;;;13.90;10.05;;;;;;;;;;5030791;28;20131;-70
2021/12/04 15:06:33;;;;;;;12.38;9.10;;;;;;;;;;5034114;28;20652;-70
2021/12/04 15:09:04;;;;;;;11.87;8.87;;;;;;;;;;5030188;28;20382;-69
2021/12/04 15:11:32;;;;;;;12.10;8.93;;;;;;;;;;5035906;28;20850;-69
2021/12/04 15:14:07;;;;;;;15.20;9.17;;;;;;;;;;5036537;28;20048;-69
2021/12/04 15:16:41;;;;;;;13.50;8.68;;;;;;;;;;5028071;28;20056;-69
2021/12/04 15:19:11;;;;;;;13.00;9.52;;;;;;;;;;5036316;28;20497;-69
2021/12/04 15:21:46;;;;;;;15.07;10.70;;;;;;;;;;5027197;28;20045;-68
2021/12/04 15:24:18;;;;;;;13.82;10.02;;;;;;;;;;5034449;28;20053;-68
2021/12/04 15:26:45;;;;;;;13.60;10.35;;;;;;;;;;5027288;28;20057;-68
2021/12/04 15:29:15;;;;;;;13.32;9.70;;;;;;;;;;5036490;28;20053;-69
2021/12/04 15:31:42;;;;;;;13.45;9.80;;;;;;;;;;5026086;28;20065;-70
2021/12/04 15:34:08;;;;;;;15.45;11.25;;;;;;;;;;5027061;28;20045;-69
2021/12/04 15:36:38;;;;;;;15.40;10.60;;;;;;;;;;5034181;28;20045;-69
2021/12/04 15:39:32;;;;;;;16.33;10.55;;;;;;;;;;5023398;28;20042;-69
2021/12/04 15:42:15;;;;;;;17.02;12.02;;;;;;;;;;5035007;28;20049;-69
2021/12/04 15:47:28;;;;;;;15.55;10.75;;;;;;;;;;5030515;28;20087;-69
2021/12/04 15:56:03;;;;;;;17.25;11.57;;;;;;;;;;5065332;28;20058;-69
2021/12/04 15:58:32;;;;;;;15.75;11.10;;;;;;;;;;5082576;28;20051;-70
2021/12/04 16:01:06;;;;;;;18.95;11.55;;;;;;;;;;5080382;28;20727;-68
2021/12/04 16:03:37;;;;;;;18.52;12.10;;;;;;;;;;5070604;28;20625;-69
2021/12/04 16:06:10;;;;;;;19.25;12.65;;;;;;;;;;5052426;28;20139;-69
2021/12/04 16:08:39;;;;;;;22.10;14.10;;;;;;;;;;5077419;28;20745;-69
2021/12/04 16:11:12;;;;;;;17.45;11.32;;;;;;;;;;5083907;28;20050;-69
2021/12/04 16:13:39;;;;;;;;;;;;;;;;;;5073480;28;20079;-69
2021/12/04 16:16:16;;;;;;;13.60;9.20;;;;;;;;;;5072465;28;19935;-70
2021/12/04 16:18:44;;;;;;;15.93;9.60;;;;;;;;;;5078306;28;20100;-70
2021/12/04 16:21:11;;;;;;;15.52;9.10;;;;;;;;;;5078942;28;20466;-69
2021/12/04 16:23:38;;;;;;;16.55;8.73;;;;;;;;;;5074663;28;20048;-69
2021/12/04 16:26:05;;;;;;;15.63;8.73;;;;;;;;;;5073965;28;20119;-69
2021/12/04 16:28:58;;;;;;;15.55;8.48;;;;;;;;;;5076151;28;20071;-69
2021/12/04 16:31:37;;;;;;;15.07;7.75;;;;;;;;;;5084138;28;20056;-70
2021/12/04 16:35:05;;;;;;;11.27;6.43;;;;;;;;;;5088379;28;20048;-70
2021/12/04 16:39:31;;;;;;;10.98;6.07;;;;;;;;;;5075205;28;20048;-70
2021/12/04 16:41:57;;;;;;;11.23;6.22;;;;;;;;;;5077047;28;20052;-70
2021/12/04 16:44:24;;;;;;;11.43;5.80;;;;;;;;;;5085941;28;20050;-70
2021/12/04 16:46:51;;;;;;;14.00;6.50;;;;;;;;;;5076631;28;20671;-69
2021/12/04 16:49:18;;;;;;;13.05;6.55;;;;;;;;;;5081515;28;20581;-69
2021/12/04 17:00:00;;;;;;;12.65;6.20;;;;;;;;;;5080915;28;20047;-69
2021/12/04 17:02:27;;;;;;;13.23;5.95;;;;;;;;;;5082822;28;20567;-70
2021/12/04 17:04:54;;;;;;;11.35;6.80;;;;;;;;;;5076494;28;20069;-69
2021/12/04 17:07:21;;;;;;;13.05;6.78;;;;;;;;;;5077009;28;20500;-69
2021/12/04 17:09:48;;;;;;;11.65;6.28;;;;;;;;;;5078194;28;20305;-68
2021/12/04 17:12:15;;;;;;;12.93;6.90;;;;;;;;;;5076539;28;20067;-69
2021/12/04 17:14:42;;;;;;;12.23;5.97;;;;;;;;;;5083885;28;20122;-70
2021/12/04 17:17:21;;;;;;;15.60;7.45;;;;;;;;;;5079827;28;20044;-69
2021/12/04 17:19:48;;;;;;;17.75;8.25;;;;;;;;;;5080918;28;20051;-69
2021/12/04 17:22:14;;;;;;;15.10;7.93;;;;;;;;;;5077749;28;20051;-68
2021/12/04 17:24:40;;;;;;;15.98;7.65;;;;;;;;;;5077616;28;20048;-69
2021/12/04 17:27:09;;;;;;;18.30;8.98;;;;;;;;;;5079653;28;20048;-69
2021/12/04 17:29:36;;;;;;;18.17;8.57;;;;;;;;;;5083537;28;20040;-69
2021/12/04 17:32:03;;;;;;;18.85;9.43;;;;;;;;;;5085089;28;20109;-69
2021/12/04 17:34:29;;;;;;;24.40;9.68;;;;;;;;;;5081900;28;20047;-69
2021/12/04 17:36:56;;;;;;;22.67;9.70;;;;;;;;;;5064734;28;20040;-69
2021/12/04 17:39:22;;;;;;;20.58;8.75;;;;;;;;;;5077479;28;20044;-69
2021/12/04 17:41:49;;;;;;;18.65;9.00;;;;;;;;;;5084955;28;20436;-69
2021/12/04 17:44:19;;;;;;;13.93;7.55;;;;;;;;;;5071339;28;20830;-69
2021/12/04 17:46:47;;;;;;;17.30;8.93;;;;;;;;;;5081186;28;20052;-70
2021/12/04 17:49:16;;;;;;;14.63;8.18;;;;;;;;;;5076086;28;20044;-69
2021/12/04 17:51:44;;;;;;;20.88;8.27;;;;;;;;;;5086101;28;20052;-69
2021/12/04 17:54:11;;;;;;;17.20;8.90;;;;;;;;;;5082576;28;20055;-70
2021/12/04 17:56:39;;;;;;;15.05;8.00;;;;;;;;;;5084203;28;20047;-69
2021/12/04 17:59:06;;;;;;;15.45;7.47;;;;;;;;;;5087657;28;20878;-69